sensor_id;sensor_type;location;lat;lon;timestamp;P1;durP1;ratioP1;P2;durP2;ratioP2
28459;SDS011;32528;45.712;9.192;2023-03-01T00:00:04;34.42;;;21.38;;
28459;SDS011;32528;45.712;9.192;2023-03-01T00:02:11;39.83;;;20.25;;
28459;SDS011;32528;45.712;9.192;2023-03-01T00:04:12;34.85;;;18.63;;
28459;SDS011;32528;45.712;9.192;2023-03-01T00:06:13;46.63;;;23.08;;
28459;SDS011;32528;45.712;9.192;2023-03-01T00:08:14;43.28;;;22.63;;
28459;SDS011;32528;45.712;9.192;2023-03-01T00:10:15;39.58;;;21.92;;
28459;SDS011;32528;45.712;9.192;2023-03-01T00:12:16;40.72;;;20.60;;
28459;SDS011;32528;45.712;9.192;2023-03-01T00:14:17;35.95;;;20.90;;
28459;SDS011;32528;45.712;9.192;2023-03-01T00:16:19;36.90;;;21.42;;
28459;SDS011;32528;45.712;9.192;2023-03-01T00:18:21;42.65;;;23.60;;
28459;SDS011;32528;45.712;9.192;2023-03-01T00:20:23;46.17;;;23.73;;
28459;SDS011;32528;45.712;9.192;2023-03-01T00:22:23;35.10;;;20.85;;
28459;SDS011;32528;45.712;9.192;2023-03-01T00:24:26;37.42;;;20.98;;
28459;SDS011;32528;45.712;9.192;2023-03-01T00:26:27;36.38;;;21.52;;
28459;SDS011;32528;45.712;9.192;2023-03-01T00:28:28;36.38;;;21.70;;
28459;SDS011;32528;45.712;9.192;2023-03-01T00:30:29;36.47;;;22.25;;
28459;SDS011;32528;45.712;9.192;2023-03-01T00:32:29;38.88;;;22.80;;
28459;SDS011;32528;45.712;9.192;2023-03-01T00:34:30;41.35;;;24.10;;
28459;SDS011;32528;45.712;9.192;2023-03-01T00:36:32;40.33;;;22.10;;
28459;SDS011;32528;45.712;9.192;2023-03-01T00:38:35;37.83;;;22.98;;
28459;SDS011;32528;45.712;9.192;2023-03-01T00:40:40;36.35;;;22.30;;
28459;SDS011;32528;45.712;9.192;2023-03-01T00:42:41;41.15;;;24.30;;
28459;SDS011;32528;45.712;9.192;2023-03-01T00:44:42;36.42;;;20.88;;
28459;SDS011;32528;45.712;9.192;2023-03-01T00:46:43;38.53;;;21.63;;
28459;SDS011;32528;45.712;9.192;2023-03-01T00:48:44;32.03;;;20.88;;
28459;SDS011;32528;45.712;9.192;2023-03-01T00:50:45;38.15;;;22.33;;
28459;SDS011;32528;45.712;9.192;2023-03-01T00:52:46;36.05;;;21.55;;
28459;SDS011;32528;45.712;9.192;2023-03-01T00:54:47;33.78;;;21.08;;
28459;SDS011;32528;45.712;9.192;2023-03-01T00:56:48;38.05;;;20.50;;
28459;SDS011;32528;45.712;9.192;2023-03-01T00:58:49;35.78;;;20.55;;
28459;SDS011;32528;45.712;9.192;2023-03-01T01:00:50;38.45;;;20.23;;
28459;SDS011;32528;45.712;9.192;2023-03-01T01:02:52;35.08;;;20.70;;
28459;SDS011;32528;45.712;9.192;2023-03-01T01:04:53;33.45;;;19.95;;
28459;SDS011;32528;45.712;9.192;2023-03-01T01:06:54;35.38;;;20.85;;
28459;SDS011;32528;45.712;9.192;2023-03-01T01:08:55;34.00;;;21.38;;
28459;SDS011;32528;45.712;9.192;2023-03-01T01:10:56;39.20;;;21.63;;
28459;SDS011;32528;45.712;9.192;2023-03-01T01:12:57;35.97;;;19.92;;
28459;SDS011;32528;45.712;9.192;2023-03-01T01:14:58;36.70;;;21.55;;
28459;SDS011;32528;45.712;9.192;2023-03-01T01:16:59;38.67;;;21.13;;
28459;SDS011;32528;45.712;9.192;2023-03-01T01:19:00;39.55;;;23.52;;
28459;SDS011;32528;45.712;9.192;2023-03-01T01:21:08;38.78;;;22.70;;
28459;SDS011;32528;45.712;9.192;2023-03-01T01:23:13;44.97;;;24.25;;
28459;SDS011;32528;45.712;9.192;2023-03-01T01:25:14;34.42;;;21.20;;
28459;SDS011;32528;45.712;9.192;2023-03-01T01:27:15;34.42;;;20.25;;
28459;SDS011;32528;45.712;9.192;2023-03-01T01:29:16;35.67;;;20.92;;
28459;SDS011;32528;45.712;9.192;2023-03-01T01:31:17;38.40;;;22.40;;
28459;SDS011;32528;45.712;9.192;2023-03-01T01:33:18;36.97;;;21.17;;
28459;SDS011;32528;45.712;9.192;2023-03-01T01:35:19;36.83;;;20.90;;
28459;SDS011;32528;45.712;9.192;2023-03-01T01:37:20;41.42;;;22.00;;
28459;SDS011;32528;45.712;9.192;2023-03-01T01:39:21;48.15;;;24.10;;
28459;SDS011;32528;45.712;9.192;2023-03-01T01:41:23;53.22;;;25.83;;
28459;SDS011;32528;45.712;9.192;2023-03-01T01:43:26;54.42;;;26.08;;
28459;SDS011;32528;45.712;9.192;2023-03-01T01:47:34;44.17;;;23.10;;
28459;SDS011;32528;45.712;9.192;2023-03-01T01:49:39;36.42;;;21.20;;
28459;SDS011;32528;45.712;9.192;2023-03-01T01:51:47;34.47;;;20.33;;
28459;SDS011;32528;45.712;9.192;2023-03-01T01:53:52;38.47;;;21.20;;
28459;SDS011;32528;45.712;9.192;2023-03-01T01:55:59;36.25;;;21.95;;
28459;SDS011;32528;45.712;9.192;2023-03-01T01:58:02;36.80;;;23.15;;
28459;SDS011;32528;45.712;9.192;2023-03-01T02:00:09;34.95;;;19.88;;
28459;SDS011;32528;45.712;9.192;2023-03-01T02:02:15;40.75;;;22.50;;
28459;SDS011;32528;45.712;9.192;2023-03-01T02:04:15;41.67;;;21.05;;
28459;SDS011;32528;45.712;9.192;2023-03-01T02:06:21;36.30;;;22.13;;
28459;SDS011;32528;45.712;9.192;2023-03-01T02:08:29;33.47;;;20.17;;
28459;SDS011;32528;45.712;9.192;2023-03-01T02:10:33;37.03;;;20.20;;
28459;SDS011;32528;45.712;9.192;2023-03-01T02:12:35;36.72;;;20.60;;
28459;SDS011;32528;45.712;9.192;2023-03-01T02:14:36;39.95;;;21.20;;
28459;SDS011;32528;45.712;9.192;2023-03-01T02:16:37;42.20;;;20.88;;
28459;SDS011;32528;45.712;9.192;2023-03-01T02:18:38;37.80;;;20.52;;
28459;SDS011;32528;45.712;9.192;2023-03-01T02:23:05;32.10;;;19.42;;
28459;SDS011;32528;45.712;9.192;2023-03-01T02:27:20;43.72;;;22.05;;
28459;SDS011;32528;45.712;9.192;2023-03-01T02:29:24;38.55;;;20.98;;
28459;SDS011;32528;45.712;9.192;2023-03-01T02:31:26;33.20;;;19.58;;
28459;SDS011;32528;45.712;9.192;2023-03-01T02:33:42;32.42;;;19.80;;
28459;SDS011;32528;45.712;9.192;2023-03-01T02:35:45;39.92;;;21.80;;
28459;SDS011;32528;45.712;9.192;2023-03-01T02:37:46;37.20;;;20.98;;
28459;SDS011;32528;45.712;9.192;2023-03-01T02:39:48;44.95;;;20.52;;
28459;SDS011;32528;45.712;9.192;2023-03-01T02:41:57;35.00;;;21.60;;
28459;SDS011;32528;45.712;9.192;2023-03-01T02:44:00;38.67;;;19.38;;
28459;SDS011;32528;45.712;9.192;2023-03-01T02:46:05;34.83;;;20.65;;
28459;SDS011;32528;45.712;9.192;2023-03-01T02:48:14;38.22;;;20.67;;
28459;SDS011;32528;45.712;9.192;2023-03-01T02:56:51;35.55;;;18.48;;
28459;SDS011;32528;45.712;9.192;2023-03-01T02:58:54;33.85;;;19.15;;
28459;SDS011;32528;45.712;9.192;2023-03-01T03:01:01;35.88;;;21.17;;
28459;SDS011;32528;45.712;9.192;2023-03-01T03:03:02;39.72;;;19.02;;
28459;SDS011;32528;45.712;9.192;2023-03-01T03:05:08;38.55;;;21.23;;
28459;SDS011;32528;45.712;9.192;2023-03-01T03:07:11;32.90;;;19.88;;
28459;SDS011;32528;45.712;9.192;2023-03-01T03:09:14;37.50;;;21.58;;
28459;SDS011;32528;45.712;9.192;2023-03-01T03:11:15;38.92;;;19.60;;
28459;SDS011;32528;45.712;9.192;2023-03-01T03:13:16;43.25;;;21.15;;
28459;SDS011;32528;45.712;9.192;2023-03-01T03:15:17;34.45;;;20.52;;
28459;SDS011;32528;45.712;9.192;2023-03-01T03:17:18;35.92;;;20.67;;
28459;SDS011;32528;45.712;9.192;2023-03-01T03:19:19;37.90;;;20.33;;
28459;SDS011;32528;45.712;9.192;2023-03-01T03:21:20;35.03;;;21.15;;
28459;SDS011;32528;45.712;9.192;2023-03-01T03:23:21;37.17;;;20.90;;
28459;SDS011;32528;45.712;9.192;2023-03-01T03:25:24;45.35;;;21.90;;
28459;SDS011;32528;45.712;9.192;2023-03-01T03:27:28;29.70;;;18.23;;
28459;SDS011;32528;45.712;9.192;2023-03-01T03:29:28;35.45;;;20.92;;
28459;SDS011;32528;45.712;9.192;2023-03-01T03:31:29;33.17;;;20.70;;
28459;SDS011;32528;45.712;9.192;2023-03-01T03:33:30;36.92;;;21.02;;
28459;SDS011;32528;45.712;9.192;2023-03-01T03:35:32;33.88;;;19.33;;
28459;SDS011;32528;45.712;9.192;2023-03-01T03:37:35;41.47;;;23.67;;
28459;SDS011;32528;45.712;9.192;2023-03-01T03:39:56;51.55;;;26.58;;
28459;SDS011;32528;45.712;9.192;2023-03-01T03:41:57;39.35;;;22.73;;
28459;SDS011;32528;45.712;9.192;2023-03-01T03:43:59;36.83;;;19.35;;
28459;SDS011;32528;45.712;9.192;2023-03-01T03:45:59;36.28;;;19.83;;
28459;SDS011;32528;45.712;9.192;2023-03-01T03:48:01;41.60;;;19.85;;
28459;SDS011;32528;45.712;9.192;2023-03-01T03:50:02;45.28;;;27.30;;
28459;SDS011;32528;45.712;9.192;2023-03-01T03:52:03;36.70;;;22.45;;
28459;SDS011;32528;45.712;9.192;2023-03-01T03:54:04;43.72;;;23.25;;
28459;SDS011;32528;45.712;9.192;2023-03-01T03:56:06;39.47;;;22.98;;
28459;SDS011;32528;45.712;9.192;2023-03-01T03:58:08;39.38;;;23.00;;
28459;SDS011;32528;45.712;9.192;2023-03-01T04:00:11;37.78;;;21.15;;
28459;SDS011;32528;45.712;9.192;2023-03-01T04:02:15;35.85;;;22.00;;
28459;SDS011;32528;45.712;9.192;2023-03-01T04:04:22;53.08;;;23.52;;
28459;SDS011;32528;45.712;9.192;2023-03-01T04:06:22;41.92;;;22.77;;
28459;SDS011;32528;45.712;9.192;2023-03-01T04:08:23;38.13;;;21.58;;
28459;SDS011;32528;45.712;9.192;2023-03-01T04:10:24;42.50;;;23.70;;
28459;SDS011;32528;45.712;9.192;2023-03-01T04:12:25;34.22;;;19.10;;
28459;SDS011;32528;45.712;9.192;2023-03-01T04:14:26;35.58;;;21.33;;
28459;SDS011;32528;45.712;9.192;2023-03-01T04:16:27;32.60;;;19.98;;
28459;SDS011;32528;45.712;9.192;2023-03-01T04:18:27;37.28;;;21.10;;
28459;SDS011;32528;45.712;9.192;2023-03-01T04:20:29;36.05;;;20.60;;
28459;SDS011;32528;45.712;9.192;2023-03-01T04:22:33;36.08;;;20.42;;
28459;SDS011;32528;45.712;9.192;2023-03-01T04:24:35;35.35;;;19.23;;
28459;SDS011;32528;45.712;9.192;2023-03-01T04:26:35;32.00;;;18.88;;
28459;SDS011;32528;45.712;9.192;2023-03-01T04:28:37;36.75;;;20.08;;
28459;SDS011;32528;45.712;9.192;2023-03-01T04:30:40;43.05;;;21.60;;
28459;SDS011;32528;45.712;9.192;2023-03-01T04:32:41;41.75;;;22.10;;
28459;SDS011;32528;45.712;9.192;2023-03-01T04:34:42;36.50;;;20.73;;
28459;SDS011;32528;45.712;9.192;2023-03-01T04:36:43;48.60;;;25.95;;
28459;SDS011;32528;45.712;9.192;2023-03-01T04:38:43;42.88;;;20.63;;
28459;SDS011;32528;45.712;9.192;2023-03-01T04:40:48;44.55;;;22.63;;
28459;SDS011;32528;45.712;9.192;2023-03-01T04:42:50;44.65;;;21.85;;
28459;SDS011;32528;45.712;9.192;2023-03-01T04:44:50;34.92;;;21.33;;
28459;SDS011;32528;45.712;9.192;2023-03-01T04:46:51;34.85;;;21.60;;
28459;SDS011;32528;45.712;9.192;2023-03-01T04:48:52;34.97;;;20.25;;
28459;SDS011;32528;45.712;9.192;2023-03-01T04:50:52;36.42;;;20.92;;
28459;SDS011;32528;45.712;9.192;2023-03-01T04:52:53;42.88;;;22.02;;
28459;SDS011;32528;45.712;9.192;2023-03-01T04:54:55;41.20;;;21.23;;
28459;SDS011;32528;45.712;9.192;2023-03-01T04:56:55;39.28;;;21.73;;
28459;SDS011;32528;45.712;9.192;2023-03-01T04:58:56;33.20;;;18.05;;
28459;SDS011;32528;45.712;9.192;2023-03-01T05:00:57;33.10;;;19.90;;
28459;SDS011;32528;45.712;9.192;2023-03-01T05:03:01;42.03;;;21.40;;
28459;SDS011;32528;45.712;9.192;2023-03-01T05:05:01;39.35;;;20.25;;
28459;SDS011;32528;45.712;9.192;2023-03-01T05:07:02;42.90;;;22.45;;
28459;SDS011;32528;45.712;9.192;2023-03-01T05:09:03;31.92;;;19.70;;
28459;SDS011;32528;45.712;9.192;2023-03-01T05:11:04;39.33;;;22.02;;
28459;SDS011;32528;45.712;9.192;2023-03-01T05:13:05;32.85;;;21.25;;
28459;SDS011;32528;45.712;9.192;2023-03-01T05:15:06;34.38;;;20.73;;
28459;SDS011;32528;45.712;9.192;2023-03-01T05:17:07;35.47;;;20.95;;
28459;SDS011;32528;45.712;9.192;2023-03-01T05:19:08;43.30;;;21.02;;
28459;SDS011;32528;45.712;9.192;2023-03-01T05:21:15;41.70;;;22.77;;
28459;SDS011;32528;45.712;9.192;2023-03-01T05:23:17;40.45;;;21.30;;
28459;SDS011;32528;45.712;9.192;2023-03-01T05:25:18;41.05;;;22.80;;
28459;SDS011;32528;45.712;9.192;2023-03-01T05:27:19;48.55;;;24.42;;
28459;SDS011;32528;45.712;9.192;2023-03-01T05:29:23;40.53;;;20.85;;
28459;SDS011;32528;45.712;9.192;2023-03-01T05:31:28;43.25;;;21.67;;
28459;SDS011;32528;45.712;9.192;2023-03-01T05:33:30;37.25;;;22.17;;
28459;SDS011;32528;45.712;9.192;2023-03-01T05:35:32;38.83;;;21.17;;
28459;SDS011;32528;45.712;9.192;2023-03-01T05:37:33;45.58;;;25.42;;
28459;SDS011;32528;45.712;9.192;2023-03-01T05:39:37;62.60;;;37.20;;
28459;SDS011;32528;45.712;9.192;2023-03-01T05:41:37;89.68;;;56.40;;
28459;SDS011;32528;45.712;9.192;2023-03-01T05:43:38;47.13;;;25.70;;
28459;SDS011;32528;45.712;9.192;2023-03-01T05:45:42;40.30;;;23.45;;
28459;SDS011;32528;45.712;9.192;2023-03-01T05:47:43;35.88;;;21.52;;
28459;SDS011;32528;45.712;9.192;2023-03-01T05:49:46;40.20;;;23.10;;
28459;SDS011;32528;45.712;9.192;2023-03-01T05:53:51;35.70;;;21.20;;
28459;SDS011;32528;45.712;9.192;2023-03-01T05:55:52;33.72;;;20.08;;
28459;SDS011;32528;45.712;9.192;2023-03-01T05:57:53;39.17;;;21.90;;
28459;SDS011;32528;45.712;9.192;2023-03-01T05:59:54;39.67;;;20.42;;
28459;SDS011;32528;45.712;9.192;2023-03-01T06:01:54;37.45;;;22.40;;
28459;SDS011;32528;45.712;9.192;2023-03-01T06:03:55;41.75;;;22.13;;
28459;SDS011;32528;45.712;9.192;2023-03-01T06:05:57;61.00;;;27.83;;
28459;SDS011;32528;45.712;9.192;2023-03-01T06:07:58;38.83;;;22.58;;
28459;SDS011;32528;45.712;9.192;2023-03-01T06:09:59;44.28;;;23.50;;
28459;SDS011;32528;45.712;9.192;2023-03-01T06:12:00;40.92;;;23.23;;
28459;SDS011;32528;45.712;9.192;2023-03-01T06:14:01;41.47;;;23.23;;
28459;SDS011;32528;45.712;9.192;2023-03-01T06:16:06;35.70;;;22.67;;
28459;SDS011;32528;45.712;9.192;2023-03-01T06:18:07;33.58;;;20.52;;
28459;SDS011;32528;45.712;9.192;2023-03-01T06:20:19;42.50;;;25.20;;
28459;SDS011;32528;45.712;9.192;2023-03-01T06:22:21;71.85;;;34.67;;
28459;SDS011;32528;45.712;9.192;2023-03-01T06:24:22;66.55;;;35.30;;
28459;SDS011;32528;45.712;9.192;2023-03-01T06:26:23;60.38;;;32.78;;
28459;SDS011;32528;45.712;9.192;2023-03-01T06:28:25;50.83;;;30.52;;
28459;SDS011;32528;45.712;9.192;2023-03-01T06:30:26;58.38;;;28.15;;
28459;SDS011;32528;45.712;9.192;2023-03-01T06:32:27;50.17;;;28.23;;
28459;SDS011;32528;45.712;9.192;2023-03-01T06:34:28;48.53;;;24.05;;
28459;SDS011;32528;45.712;9.192;2023-03-01T06:36:28;43.75;;;24.10;;
28459;SDS011;32528;45.712;9.192;2023-03-01T06:40:31;46.60;;;25.10;;
28459;SDS011;32528;45.712;9.192;2023-03-01T06:42:32;47.42;;;23.33;;
28459;SDS011;32528;45.712;9.192;2023-03-01T06:44:33;40.92;;;22.27;;
28459;SDS011;32528;45.712;9.192;2023-03-01T06:46:33;35.95;;;21.75;;
28459;SDS011;32528;45.712;9.192;2023-03-01T06:48:35;55.53;;;26.33;;
28459;SDS011;32528;45.712;9.192;2023-03-01T06:50:35;38.13;;;22.67;;
28459;SDS011;32528;45.712;9.192;2023-03-01T06:52:37;43.33;;;24.38;;
28459;SDS011;32528;45.712;9.192;2023-03-01T06:54:38;90.30;;;56.38;;
28459;SDS011;32528;45.712;9.192;2023-03-01T06:56:39;55.35;;;32.20;;
28459;SDS011;32528;45.712;9.192;2023-03-01T06:58:40;60.05;;;32.25;;
28459;SDS011;32528;45.712;9.192;2023-03-01T07:00:41;68.20;;;32.53;;
28459;SDS011;32528;45.712;9.192;2023-03-01T07:02:43;67.50;;;29.88;;
28459;SDS011;32528;45.712;9.192;2023-03-01T07:04:43;56.10;;;26.63;;
28459;SDS011;32528;45.712;9.192;2023-03-01T07:06:44;48.08;;;26.50;;
28459;SDS011;32528;45.712;9.192;2023-03-01T07:08:45;53.83;;;27.23;;
28459;SDS011;32528;45.712;9.192;2023-03-01T07:10:45;34.58;;;17.08;;
28459;SDS011;32528;45.712;9.192;2023-03-01T07:12:46;31.00;;;17.23;;
28459;SDS011;32528;45.712;9.192;2023-03-01T07:14:47;41.20;;;22.45;;
28459;SDS011;32528;45.712;9.192;2023-03-01T07:16:48;40.15;;;20.45;;
28459;SDS011;32528;45.712;9.192;2023-03-01T07:18:48;40.95;;;24.73;;
28459;SDS011;32528;45.712;9.192;2023-03-01T07:20:49;51.92;;;26.85;;
28459;SDS011;32528;45.712;9.192;2023-03-01T07:22:53;53.00;;;26.00;;
28459;SDS011;32528;45.712;9.192;2023-03-01T07:24:56;46.40;;;26.38;;
28459;SDS011;32528;45.712;9.192;2023-03-01T07:26:56;48.92;;;27.27;;
28459;SDS011;32528;45.712;9.192;2023-03-01T07:29:00;61.78;;;29.90;;
28459;SDS011;32528;45.712;9.192;2023-03-01T07:31:02;64.38;;;32.17;;
28459;SDS011;32528;45.712;9.192;2023-03-01T07:33:03;61.45;;;35.28;;
28459;SDS011;32528;45.712;9.192;2023-03-01T07:35:04;69.03;;;34.42;;
28459;SDS011;32528;45.712;9.192;2023-03-01T07:37:05;62.70;;;35.40;;
28459;SDS011;32528;45.712;9.192;2023-03-01T07:39:05;58.97;;;32.72;;
28459;SDS011;32528;45.712;9.192;2023-03-01T07:41:06;57.53;;;33.85;;
28459;SDS011;32528;45.712;9.192;2023-03-01T07:43:08;52.90;;;29.02;;
28459;SDS011;32528;45.712;9.192;2023-03-01T07:45:08;57.75;;;27.92;;
28459;SDS011;32528;45.712;9.192;2023-03-01T07:47:10;52.08;;;28.98;;
28459;SDS011;32528;45.712;9.192;2023-03-01T07:49:10;50.67;;;30.48;;
28459;SDS011;32528;45.712;9.192;2023-03-01T07:51:11;52.22;;;29.73;;
28459;SDS011;32528;45.712;9.192;2023-03-01T07:53:12;51.65;;;29.58;;
28459;SDS011;32528;45.712;9.192;2023-03-01T07:55:14;48.72;;;29.83;;
28459;SDS011;32528;45.712;9.192;2023-03-01T07:57:15;45.45;;;27.92;;
28459;SDS011;32528;45.712;9.192;2023-03-01T07:59:16;58.33;;;28.45;;
28459;SDS011;32528;45.712;9.192;2023-03-01T08:01:18;48.38;;;25.95;;
28459;SDS011;32528;45.712;9.192;2023-03-01T08:03:20;46.85;;;26.35;;
28459;SDS011;32528;45.712;9.192;2023-03-01T08:05:21;44.38;;;26.38;;
28459;SDS011;32528;45.712;9.192;2023-03-01T08:07:22;44.17;;;24.83;;
28459;SDS011;32528;45.712;9.192;2023-03-01T08:09:23;49.53;;;25.73;;
28459;SDS011;32528;45.712;9.192;2023-03-01T08:11:23;49.15;;;24.90;;
28459;SDS011;32528;45.712;9.192;2023-03-01T08:13:24;49.65;;;26.67;;
28459;SDS011;32528;45.712;9.192;2023-03-01T08:15:25;51.78;;;26.02;;
28459;SDS011;32528;45.712;9.192;2023-03-01T08:17:25;54.53;;;22.92;;
28459;SDS011;32528;45.712;9.192;2023-03-01T08:19:27;39.38;;;20.83;;
28459;SDS011;32528;45.712;9.192;2023-03-01T08:21:28;40.65;;;20.98;;
28459;SDS011;32528;45.712;9.192;2023-03-01T08:23:28;41.50;;;21.88;;
28459;SDS011;32528;45.712;9.192;2023-03-01T08:25:30;44.25;;;21.92;;
28459;SDS011;32528;45.712;9.192;2023-03-01T08:27:30;32.55;;;16.52;;
28459;SDS011;32528;45.712;9.192;2023-03-01T08:29:31;28.80;;;17.67;;
28459;SDS011;32528;45.712;9.192;2023-03-01T08:31:34;32.75;;;17.27;;
28459;SDS011;32528;45.712;9.192;2023-03-01T08:33:37;49.25;;;19.80;;
28459;SDS011;32528;45.712;9.192;2023-03-01T08:35:38;43.60;;;21.85;;
28459;SDS011;32528;45.712;9.192;2023-03-01T08:37:39;40.65;;;20.98;;
28459;SDS011;32528;45.712;9.192;2023-03-01T08:39:39;44.40;;;20.23;;
28459;SDS011;32528;45.712;9.192;2023-03-01T08:41:40;30.60;;;18.92;;
28459;SDS011;32528;45.712;9.192;2023-03-01T08:43:41;42.63;;;18.95;;
28459;SDS011;32528;45.712;9.192;2023-03-01T08:45:42;34.47;;;17.05;;
28459;SDS011;32528;45.712;9.192;2023-03-01T08:47:43;37.72;;;18.60;;
28459;SDS011;32528;45.712;9.192;2023-03-01T08:49:44;29.73;;;17.95;;
28459;SDS011;32528;45.712;9.192;2023-03-01T08:51:45;30.75;;;18.55;;
28459;SDS011;32528;45.712;9.192;2023-03-01T08:53:47;44.55;;;20.65;;
28459;SDS011;32528;45.712;9.192;2023-03-01T08:55:48;43.50;;;20.40;;
28459;SDS011;32528;45.712;9.192;2023-03-01T08:57:48;37.75;;;22.52;;
28459;SDS011;32528;45.712;9.192;2023-03-01T08:59:49;32.55;;;19.00;;
28459;SDS011;32528;45.712;9.192;2023-03-01T09:01:50;43.92;;;19.95;;
28459;SDS011;32528;45.712;9.192;2023-03-01T09:03:50;35.40;;;20.00;;
28459;SDS011;32528;45.712;9.192;2023-03-01T09:05:52;36.72;;;19.00;;
28459;SDS011;32528;45.712;9.192;2023-03-01T09:07:52;35.92;;;18.83;;
28459;SDS011;32528;45.712;9.192;2023-03-01T09:09:54;28.58;;;17.05;;
28459;SDS011;32528;45.712;9.192;2023-03-01T09:11:55;30.38;;;16.95;;
28459;SDS011;32528;45.712;9.192;2023-03-01T09:13:55;32.13;;;17.08;;
28459;SDS011;32528;45.712;9.192;2023-03-01T09:15:57;28.73;;;15.57;;
28459;SDS011;32528;45.712;9.192;2023-03-01T09:17:59;33.72;;;18.77;;
28459;SDS011;32528;45.712;9.192;2023-03-01T09:20:00;29.15;;;17.10;;
28459;SDS011;32528;45.712;9.192;2023-03-01T09:22:02;31.08;;;18.02;;
28459;SDS011;32528;45.712;9.192;2023-03-01T09:24:03;33.20;;;18.02;;
28459;SDS011;32528;45.712;9.192;2023-03-01T09:26:05;38.33;;;17.90;;
28459;SDS011;32528;45.712;9.192;2023-03-01T09:28:08;31.08;;;16.60;;
28459;SDS011;32528;45.712;9.192;2023-03-01T09:30:11;28.17;;;14.85;;
28459;SDS011;32528;45.712;9.192;2023-03-01T09:32:12;23.13;;;13.50;;
28459;SDS011;32528;45.712;9.192;2023-03-01T09:34:13;34.25;;;15.30;;
28459;SDS011;32528;45.712;9.192;2023-03-01T09:36:17;29.17;;;15.70;;
28459;SDS011;32528;45.712;9.192;2023-03-01T09:38:22;28.25;;;14.32;;
28459;SDS011;32528;45.712;9.192;2023-03-01T09:40:24;33.55;;;15.70;;
28459;SDS011;32528;45.712;9.192;2023-03-01T09:42:29;27.80;;;16.83;;
28459;SDS011;32528;45.712;9.192;2023-03-01T09:44:36;28.45;;;17.50;;
28459;SDS011;32528;45.712;9.192;2023-03-01T09:46:47;39.67;;;17.40;;
28459;SDS011;32528;45.712;9.192;2023-03-01T09:48:50;33.05;;;17.67;;
28459;SDS011;32528;45.712;9.192;2023-03-01T09:50:56;41.55;;;16.65;;
28459;SDS011;32528;45.712;9.192;2023-03-01T09:53:09;29.40;;;18.38;;
28459;SDS011;32528;45.712;9.192;2023-03-01T09:55:14;39.42;;;19.30;;
28459;SDS011;32528;45.712;9.192;2023-03-01T10:02:09;35.20;;;18.45;;
28459;SDS011;32528;45.712;9.192;2023-03-01T10:06:36;42.60;;;18.53;;
28459;SDS011;32528;45.712;9.192;2023-03-01T10:08:40;31.67;;;18.58;;
28459;SDS011;32528;45.712;9.192;2023-03-01T10:10:55;36.83;;;20.73;;
28459;SDS011;32528;45.712;9.192;2023-03-01T10:12:56;32.28;;;17.92;;
28459;SDS011;32528;45.712;9.192;2023-03-01T10:15:02;36.85;;;20.00;;
28459;SDS011;32528;45.712;9.192;2023-03-01T10:19:39;42.88;;;21.17;;
28459;SDS011;32528;45.712;9.192;2023-03-01T10:21:45;40.60;;;22.50;;
28459;SDS011;32528;45.712;9.192;2023-03-01T10:23:49;38.53;;;22.73;;
28459;SDS011;32528;45.712;9.192;2023-03-01T10:31:05;38.00;;;21.08;;
28459;SDS011;32528;45.712;9.192;2023-03-01T10:33:27;40.97;;;23.80;;
28459;SDS011;32528;45.712;9.192;2023-03-01T10:35:32;35.55;;;18.90;;
28459;SDS011;32528;45.712;9.192;2023-03-01T10:37:33;36.03;;;21.40;;
28459;SDS011;32528;45.712;9.192;2023-03-01T10:40:02;42.95;;;22.00;;
28459;SDS011;32528;45.712;9.192;2023-03-01T10:42:22;40.85;;;22.98;;
28459;SDS011;32528;45.712;9.192;2023-03-01T10:44:43;42.50;;;20.92;;
28459;SDS011;32528;45.712;9.192;2023-03-01T10:46:47;36.03;;;20.73;;
28459;SDS011;32528;45.712;9.192;2023-03-01T10:51:23;39.45;;;21.13;;
28459;SDS011;32528;45.712;9.192;2023-03-01T10:53:37;35.55;;;22.48;;
28459;SDS011;32528;45.712;9.192;2023-03-01T10:55:41;40.88;;;22.45;;
28459;SDS011;32528;45.712;9.192;2023-03-01T10:57:43;34.30;;;21.05;;
28459;SDS011;32528;45.712;9.192;2023-03-01T10:59:44;33.40;;;20.25;;
28459;SDS011;32528;45.712;9.192;2023-03-01T11:01:45;39.80;;;21.58;;
28459;SDS011;32528;45.712;9.192;2023-03-01T11:03:46;31.25;;;18.88;;
28459;SDS011;32528;45.712;9.192;2023-03-01T11:08:13;35.15;;;20.88;;
28459;SDS011;32528;45.712;9.192;2023-03-01T11:10:18;39.33;;;20.83;;
28459;SDS011;32528;45.712;9.192;2023-03-01T11:12:21;32.63;;;20.27;;
28459;SDS011;32528;45.712;9.192;2023-03-01T11:14:22;38.67;;;19.27;;
28459;SDS011;32528;45.712;9.192;2023-03-01T11:18:35;33.47;;;19.33;;
28459;SDS011;32528;45.712;9.192;2023-03-01T11:20:36;44.05;;;20.23;;
28459;SDS011;32528;45.712;9.192;2023-03-01T11:22:49;34.05;;;19.80;;
28459;SDS011;32528;45.712;9.192;2023-03-01T11:24:53;36.88;;;22.65;;
28459;SDS011;32528;45.712;9.192;2023-03-01T11:26:56;52.05;;;22.35;;
28459;SDS011;32528;45.712;9.192;2023-03-01T11:29:03;35.47;;;19.35;;
28459;SDS011;32528;45.712;9.192;2023-03-01T11:31:08;40.55;;;22.50;;
28459;SDS011;32528;45.712;9.192;2023-03-01T11:33:18;41.20;;;20.45;;
28459;SDS011;32528;45.712;9.192;2023-03-01T11:35:35;36.83;;;21.27;;
28459;SDS011;32528;45.712;9.192;2023-03-01T11:40:10;34.22;;;22.00;;
28459;SDS011;32528;45.712;9.192;2023-03-01T11:44:54;35.47;;;19.92;;
28459;SDS011;32528;45.712;9.192;2023-03-01T11:49:32;37.97;;;20.67;;
28459;SDS011;32528;45.712;9.192;2023-03-01T11:56:55;42.58;;;19.00;;
28459;SDS011;32528;45.712;9.192;2023-03-01T11:59:13;32.03;;;20.05;;
28459;SDS011;32528;45.712;9.192;2023-03-01T12:03:59;33.85;;;19.98;;
28459;SDS011;32528;45.712;9.192;2023-03-01T12:08:54;41.72;;;20.25;;
28459;SDS011;32528;45.712;9.192;2023-03-01T12:11:20;36.55;;;21.05;;
28459;SDS011;32528;45.712;9.192;2023-03-01T12:32:07;32.63;;;18.50;;
28459;SDS011;32528;45.712;9.192;2023-03-01T12:36:54;35.90;;;17.65;;
28459;SDS011;32528;45.712;9.192;2023-03-01T12:39:42;28.45;;;16.40;;
28459;SDS011;32528;45.712;9.192;2023-03-01T12:43:40;37.90;;;19.75;;
28459;SDS011;32528;45.712;9.192;2023-03-01T12:50:18;29.10;;;17.42;;
28459;SDS011;32528;45.712;9.192;2023-03-01T12:54:26;29.25;;;17.70;;
28459;SDS011;32528;45.712;9.192;2023-03-01T12:56:31;33.20;;;16.67;;
28459;SDS011;32528;45.712;9.192;2023-03-01T13:06:00;26.85;;;16.67;;
28459;SDS011;32528;45.712;9.192;2023-03-01T13:08:42;31.33;;;17.95;;
28459;SDS011;32528;45.712;9.192;2023-03-01T13:10:50;33.67;;;17.98;;
28459;SDS011;32528;45.712;9.192;2023-03-01T13:14:57;31.15;;;17.65;;
28459;SDS011;32528;45.712;9.192;2023-03-01T13:16:58;25.55;;;15.93;;
28459;SDS011;32528;45.712;9.192;2023-03-01T13:19:32;29.67;;;18.17;;
28459;SDS011;32528;45.712;9.192;2023-03-01T13:21:30;33.95;;;18.23;;
28459;SDS011;32528;45.712;9.192;2023-03-01T13:23:33;38.45;;;19.25;;
28459;SDS011;32528;45.712;9.192;2023-03-01T13:32:36;29.88;;;16.63;;
28459;SDS011;32528;45.712;9.192;2023-03-01T13:34:39;27.92;;;16.17;;
28459;SDS011;32528;45.712;9.192;2023-03-01T13:42:56;30.08;;;17.17;;
28459;SDS011;32528;45.712;9.192;2023-03-01T13:44:57;26.70;;;17.40;;
28459;SDS011;32528;45.712;9.192;2023-03-01T13:49:14;30.45;;;17.90;;
28459;SDS011;32528;45.712;9.192;2023-03-01T13:51:25;30.67;;;18.10;;